createdAt,value
2018-07-08T00:01:40.133Z,25.90
2018-07-08T00:04:13.161Z,26.10
2018-07-08T00:06:46.218Z,26.60
2018-07-08T00:09:19.336Z,26.30
2018-07-08T00:11:53.594Z,26.50
2018-07-08T00:14:26.782Z,26.20
2018-07-08T00:16:59.785Z,26.40
2018-07-08T00:19:32.937Z,26.50
2018-07-08T00:22:05.980Z,26.60
2018-07-08T00:24:39.131Z,26.90
2018-07-08T00:27:13.901Z,27.10
2018-07-08T00:29:46.950Z,27.30
2018-07-08T00:32:19.863Z,27.50
2018-07-08T00:34:52.882Z,27.30
2018-07-08T00:37:26.065Z,27.50
2018-07-08T00:39:59.154Z,27.30
2018-07-08T00:42:32.053Z,27.10
2018-07-08T00:45:05.414Z,26.60
2018-07-08T00:47:38.443Z,26.30
2018-07-08T00:50:12.747Z,25.90
2018-07-08T00:52:45.812Z,25.60
2018-07-08T00:55:19.049Z,25.70
2018-07-08T00:57:52.108Z,25.80
2018-07-08T01:00:38.890Z,26.40
2018-07-08T01:03:12.040Z,27.10
2018-07-08T01:05:45.163Z,27.60
2018-07-08T01:08:18.256Z,28.40
2018-07-08T01:10:51.275Z,28.90
2018-07-08T01:13:24.184Z,28.80
2018-07-08T01:15:57.223Z,28.60
2018-07-08T01:18:30.344Z,29.00
2018-07-08T01:21:03.497Z,29.30
2018-07-08T01:23:37.359Z,29.30
2018-07-08T01:26:15.789Z,28.00
2018-07-08T01:28:48.836Z,28.20
2018-07-08T01:31:21.948Z,28.50
2018-07-08T01:33:55.410Z,29.20
2018-07-08T01:36:28.482Z,28.30
2018-07-08T01:39:01.533Z,28.40
2018-07-08T01:41:34.698Z,27.60
2018-07-08T01:44:07.824Z,28.70
2018-07-08T01:46:40.846Z,28.90
2018-07-08T01:49:13.866Z,29.20
2018-07-08T01:51:46.985Z,27.90
2018-07-08T01:54:19.953Z,28.10
2018-07-08T01:56:53.132Z,28.60
2018-07-08T01:59:26.266Z,29.30
2018-07-08T02:01:59.337Z,29.50
2018-07-08T02:04:35.244Z,28.70
2018-07-08T02:07:08.424Z,27.50
2018-07-08T02:09:41.464Z,28.10
2018-07-08T02:12:14.381Z,29.40
2018-07-08T02:17:39.369Z,29.40
2018-07-08T02:20:12.421Z,29.60
2018-07-08T02:22:45.407Z,29.90
2018-07-08T02:25:18.395Z,30.20
2018-07-08T02:27:51.420Z,29.60
2018-07-08T02:30:24.409Z,28.60
2018-07-08T02:32:57.406Z,28.40
2018-07-08T02:35:30.725Z,27.20
2018-07-08T02:38:04.764Z,25.80
2018-07-08T02:40:38.703Z,25.10
2018-07-08T02:43:11.777Z,24.40
2018-07-08T02:45:44.715Z,24.20
2018-07-08T02:48:18.348Z,24.00
2018-07-08T02:50:51.355Z,23.70
2018-07-08T02:53:24.818Z,23.50
2018-07-08T02:55:57.699Z,23.30
2018-07-08T02:58:30.711Z,23.10
2018-07-08T03:01:03.738Z,22.80
2018-07-08T03:03:36.928Z,22.70
2018-07-08T03:06:09.955Z,22.60
2018-07-08T03:08:43.039Z,22.50
2018-07-08T03:11:16.148Z,22.40
2018-07-08T03:13:49.462Z,22.30
2018-07-08T03:16:22.450Z,22.30
2018-07-08T03:18:55.466Z,22.10
2018-07-08T03:21:28.581Z,21.90
2018-07-08T03:24:01.698Z,21.80
2018-07-08T03:26:34.625Z,21.70
2018-07-08T03:29:07.687Z,21.60
2018-07-08T03:31:40.806Z,21.40
2018-07-08T03:34:14.777Z,21.30
2018-07-08T03:36:47.654Z,21.30
2018-07-08T03:39:20.775Z,21.20
2018-07-08T03:41:53.860Z,21.10
2018-07-08T03:44:26.856Z,20.90
2018-07-08T03:46:59.839Z,20.80
2018-07-08T03:49:32.895Z,20.70
2018-07-08T03:52:05.855Z,20.60
2018-07-08T03:54:38.786Z,20.40
2018-07-08T03:57:11.722Z,20.30
2018-07-08T03:59:44.720Z,20.30
2018-07-08T04:02:17.644Z,20.30
2018-07-08T04:04:50.616Z,20.10
2018-07-08T04:07:23.549Z,19.90
2018-07-08T04:09:58.197Z,19.90
2018-07-08T04:12:31.366Z,19.80
2018-07-08T04:15:04.481Z,19.70
2018-07-08T04:17:37.646Z,19.60
2018-07-08T04:20:10.706Z,19.60
2018-07-08T04:22:43.782Z,19.40
2018-07-08T04:25:16.791Z,19.30
2018-07-08T04:27:49.687Z,19.20
2018-07-08T04:30:22.787Z,19.20
2018-07-08T04:32:55.842Z,19.10
2018-07-08T04:35:29.145Z,19.00
2018-07-08T04:38:02.173Z,18.90
2018-07-08T04:40:35.182Z,18.90
2018-07-08T04:43:08.120Z,18.80
2018-07-08T04:45:41.173Z,18.80
2018-07-08T04:48:14.072Z,18.80
2018-07-08T04:50:47.083Z,18.60
2018-07-08T04:53:20.073Z,18.60
2018-07-08T04:55:53.107Z,18.60
2018-07-08T04:58:26.133Z,18.60
2018-07-08T05:00:59.128Z,18.40
2018-07-08T05:03:32.174Z,18.40
2018-07-08T05:06:05.293Z,18.40
2018-07-08T05:08:38.281Z,18.30
2018-07-08T05:11:11.190Z,18.20
2018-07-08T05:13:44.186Z,18.20
2018-07-08T05:16:17.348Z,18.10
2018-07-08T05:18:50.381Z,18.10
2018-07-08T05:21:23.367Z,18.00
2018-07-08T05:23:56.431Z,18.00
2018-07-08T05:26:29.539Z,17.90
2018-07-08T05:29:03.109Z,17.80
2018-07-08T05:31:36.187Z,17.80
2018-07-08T05:34:09.284Z,17.70
2018-07-08T05:36:42.331Z,17.70
2018-07-08T05:39:15.234Z,17.60
2018-07-08T05:41:51.234Z,17.60
2018-07-08T05:44:24.533Z,17.60
2018-07-08T05:46:57.592Z,17.50
2018-07-08T05:49:30.721Z,17.50
2018-07-08T05:52:04.581Z,17.40
2018-07-08T05:54:37.604Z,17.40
2018-07-08T05:57:10.685Z,17.20
2018-07-08T05:59:43.736Z,17.10
2018-07-08T06:02:17.261Z,17.00
2018-07-08T06:04:50.297Z,16.90
2018-07-08T06:07:23.398Z,16.90
2018-07-08T06:09:56.378Z,16.90
2018-07-08T06:12:29.320Z,16.80
2018-07-08T06:15:02.340Z,16.90
2018-07-08T06:17:36.379Z,16.80
2018-07-08T06:20:13.007Z,16.80
2018-07-08T06:22:46.214Z,16.80
2018-07-08T06:25:19.368Z,16.80
2018-07-08T06:27:52.281Z,16.70
2018-07-08T06:30:25.403Z,16.70
2018-07-08T06:32:58.604Z,16.60
2018-07-08T06:35:31.813Z,16.50
2018-07-08T06:38:04.869Z,16.50
2018-07-08T06:40:37.983Z,16.40
2018-07-08T06:43:11.037Z,16.30
2018-07-08T06:45:43.978Z,16.30
2018-07-08T06:48:17.197Z,16.20
2018-07-08T06:50:50.219Z,16.20
2018-07-08T06:53:23.337Z,16.10
2018-07-08T06:55:56.258Z,16.10
2018-07-08T06:58:29.328Z,16.10
2018-07-08T07:01:02.427Z,16.00
2018-07-08T07:03:36.308Z,16.00
2018-07-08T07:06:09.909Z,16.00
2018-07-08T07:08:42.933Z,15.90
2018-07-08T07:11:15.862Z,15.90
2018-07-08T07:13:48.944Z,15.90
2018-07-08T07:16:22.054Z,15.90
2018-07-08T07:18:55.060Z,15.90
2018-07-08T07:21:28.090Z,15.80
2018-07-08T07:24:01.190Z,15.80
2018-07-08T07:26:34.216Z,15.80
2018-07-08T07:29:07.337Z,15.70
2018-07-08T07:31:40.278Z,15.70
2018-07-08T07:34:13.302Z,15.60
2018-07-08T07:36:46.330Z,15.60
2018-07-08T07:39:19.314Z,15.50
2018-07-08T07:41:52.253Z,15.50
2018-07-08T07:44:25.213Z,15.40
2018-07-08T15:41:33.933Z,19.30
2018-07-08T15:44:07.114Z,19.10
2018-07-08T15:46:40.204Z,19.00
2018-07-08T15:49:13.339Z,18.80
2018-07-08T15:51:46.427Z,18.70
2018-07-08T15:54:19.443Z,18.50
2018-07-08T15:56:52.509Z,18.30
2018-07-08T15:59:25.481Z,18.30
2018-07-08T16:01:58.617Z,18.30
2018-07-08T16:04:31.651Z,18.30
2018-07-08T16:07:04.722Z,18.20
2018-07-08T16:09:37.866Z,18.10
2018-07-08T16:12:10.922Z,18.10
2018-07-08T16:14:44.100Z,17.80
2018-07-08T16:17:17.191Z,17.90
2018-07-08T16:19:50.334Z,18.00
2018-07-08T16:22:24.098Z,18.10
2018-07-08T16:24:57.505Z,18.10
2018-07-08T16:27:30.555Z,18.30
2018-07-08T16:30:03.697Z,18.30
2018-07-08T16:32:37.291Z,18.20
2018-07-08T16:35:10.426Z,18.10
2018-07-08T16:37:43.495Z,18.20
2018-07-08T16:40:17.962Z,18.20
2018-07-08T16:42:51.118Z,18.30
2018-07-08T16:45:24.274Z,18.50
2018-07-08T16:47:58.017Z,18.70
2018-07-08T16:50:31.060Z,18.80
2018-07-08T16:53:04.139Z,18.80
2018-07-08T16:55:37.125Z,18.90
2018-07-08T16:58:10.317Z,18.90
2018-07-08T17:00:43.430Z,19.00
2018-07-08T17:03:16.645Z,18.90
2018-07-08T17:05:49.664Z,19.10
2018-07-08T17:08:22.820Z,19.00
2018-07-08T17:10:55.987Z,19.00
2018-07-08T17:13:29.037Z,19.20
2018-07-08T17:16:02.123Z,19.40
2018-07-08T17:18:35.303Z,19.60
2018-07-08T17:21:08.517Z,19.70
2018-07-08T17:23:41.531Z,19.70
2018-07-08T17:26:14.795Z,19.60
2018-07-08T17:28:47.839Z,19.70
2018-07-08T17:31:21.008Z,19.90
2018-07-08T17:33:54.165Z,20.10
2018-07-08T17:36:27.586Z,20.20
2018-07-08T17:39:00.652Z,20.30
2018-07-08T17:41:33.640Z,20.20
2018-07-08T17:44:07.456Z,20.40
2018-07-08T17:46:40.601Z,20.50
2018-07-08T17:49:13.598Z,20.70
2018-07-08T17:51:46.781Z,20.70
2018-07-08T17:54:20.948Z,20.80
2018-07-08T17:56:54.687Z,21.00
2018-07-08T17:59:27.906Z,21.20
2018-07-08T18:02:00.928Z,21.20
2018-07-08T18:04:34.052Z,21.20
2018-07-08T18:07:07.516Z,21.30
2018-07-08T18:09:40.808Z,21.40
2018-07-08T18:12:15.010Z,21.60
2018-07-08T18:14:48.169Z,21.70
2018-07-08T18:17:21.234Z,21.80
2018-07-08T18:19:54.438Z,21.80
2018-07-08T18:22:27.556Z,21.90
2018-07-08T18:25:00.988Z,22.00
2018-07-08T18:27:34.030Z,22.20
2018-07-08T18:30:07.141Z,22.30
2018-07-08T18:32:40.155Z,22.40
2018-07-08T18:35:13.342Z,22.40
2018-07-08T18:37:46.574Z,22.40
2018-07-08T18:40:19.825Z,22.40
2018-07-08T18:42:53.042Z,22.60
2018-07-08T18:45:26.237Z,22.70
2018-07-08T18:47:59.404Z,22.80
2018-07-08T18:50:32.517Z,22.90
2018-07-08T18:53:05.567Z,22.90
2018-07-08T18:55:38.573Z,23.00
2018-07-08T18:58:11.775Z,23.10
2018-07-08T19:00:44.833Z,23.20
2018-07-08T19:03:17.914Z,22.90
2018-07-08T19:05:50.877Z,23.10
2018-07-08T19:08:23.912Z,22.90
2018-07-08T19:10:57.108Z,23.10
2018-07-08T19:13:30.166Z,23.30
2018-07-08T19:16:03.354Z,23.60
2018-07-08T19:18:36.575Z,23.60
2018-07-08T19:21:09.688Z,23.40
2018-07-08T19:23:42.792Z,23.70
2018-07-08T19:26:15.887Z,23.90
2018-07-08T19:28:48.991Z,24.20
2018-07-08T19:31:22.274Z,24.30
2018-07-08T19:33:55.212Z,24.40
2018-07-08T19:36:28.319Z,24.40
2018-07-08T19:39:01.610Z,24.50
2018-07-08T19:41:34.706Z,24.80
2018-07-08T19:44:07.796Z,24.80
2018-07-08T19:46:40.780Z,24.70
2018-07-08T19:49:13.806Z,24.80
2018-07-08T19:51:46.988Z,24.50
2018-07-08T19:54:20.497Z,24.50
2018-07-08T19:56:53.696Z,24.80
2018-07-08T19:59:26.928Z,24.70
2018-07-08T20:02:00.043Z,24.80
2018-07-08T20:04:33.108Z,24.90
2018-07-08T20:07:06.464Z,25.10
2018-07-08T20:09:39.654Z,25.30
2018-07-08T20:12:12.634Z,25.20
2018-07-08T20:14:45.829Z,25.20
2018-07-08T20:17:18.859Z,25.20
2018-07-08T20:19:52.421Z,24.90
2018-07-08T20:22:25.601Z,25.00
2018-07-08T20:24:58.880Z,24.90
2018-07-08T20:27:31.927Z,24.60
2018-07-08T20:30:05.100Z,24.80
2018-07-08T20:32:38.360Z,24.90
2018-07-08T20:35:12.549Z,25.10
2018-07-08T20:37:45.753Z,25.10
2018-07-08T20:40:18.808Z,25.30
2018-07-08T20:42:51.999Z,25.40
2018-07-08T20:45:25.128Z,25.50
2018-07-08T20:47:58.450Z,25.50
2018-07-08T20:50:31.481Z,25.30
2018-07-08T20:53:04.530Z,25.00
2018-07-08T20:55:37.581Z,24.90
2018-07-08T20:58:10.540Z,25.20
2018-07-08T21:00:43.546Z,25.30
2018-07-08T21:03:16.790Z,25.20
2018-07-08T21:05:49.955Z,25.40
2018-07-08T21:08:23.139Z,25.60
2018-07-08T21:10:56.336Z,25.60
2018-07-08T21:13:29.601Z,25.80
2018-07-08T21:16:02.692Z,25.90
2018-07-08T21:18:35.770Z,25.60
2018-07-08T21:21:08.975Z,25.80
2018-07-08T21:23:42.165Z,26.20
2018-07-08T21:26:15.275Z,26.20
2018-07-08T21:28:48.424Z,26.30
2018-07-08T21:31:21.907Z,26.10
2018-07-08T21:33:55.048Z,25.90
2018-07-08T21:36:28.176Z,25.80
2018-07-08T21:39:01.349Z,25.80
2018-07-08T21:41:34.471Z,26.00
2018-07-08T21:44:07.570Z,26.10
2018-07-08T21:46:40.607Z,25.80
2018-07-08T21:49:13.758Z,25.90
2018-07-08T21:51:46.833Z,25.70
2018-07-08T21:54:19.928Z,25.90
2018-07-08T21:56:53.790Z,26.00
2018-07-08T21:59:26.846Z,26.00
2018-07-08T22:02:07.308Z,26.00
2018-07-08T22:04:40.462Z,26.10
2018-07-08T22:07:17.479Z,25.50
2018-07-08T22:09:50.570Z,25.80
2018-07-08T22:12:23.583Z,26.10
2018-07-08T22:14:56.654Z,26.50
2018-07-08T22:17:30.457Z,26.70
2018-07-08T22:20:03.567Z,26.70
2018-07-08T22:22:36.769Z,26.90
2018-07-08T22:25:09.949Z,27.20
2018-07-08T22:27:43.010Z,27.20
2018-07-08T22:30:16.239Z,27.20
2018-07-08T22:32:49.372Z,27.30
2018-07-08T22:35:22.440Z,27.20
2018-07-08T22:37:55.542Z,27.00
2018-07-08T22:40:28.755Z,27.10
2018-07-08T22:43:01.808Z,27.20
2018-07-08T22:45:38.086Z,27.40
2018-07-08T22:48:11.263Z,27.50
2018-07-08T22:50:44.254Z,27.70
2018-07-08T22:53:17.374Z,28.00
2018-07-08T22:55:50.333Z,28.10
2018-07-08T22:58:23.433Z,28.10
2018-07-08T23:01:05.472Z,28.10
2018-07-08T23:03:55.397Z,28.20
2018-07-08T23:06:28.530Z,28.30
2018-07-08T23:09:01.642Z,28.20
2018-07-08T23:11:34.674Z,28.30
2018-07-08T23:14:07.806Z,28.40
2018-07-08T23:16:41.067Z,28.20
2018-07-08T23:19:14.267Z,28.30
2018-07-08T23:21:47.345Z,28.20
2018-07-08T23:24:20.478Z,28.20
2018-07-08T23:26:53.704Z,28.10
2018-07-08T23:29:27.464Z,27.90
2018-07-08T23:32:00.676Z,27.80
2018-07-08T23:34:33.818Z,28.10
2018-07-08T23:37:06.970Z,28.20
2018-07-08T23:39:40.010Z,28.50
2018-07-08T23:42:13.074Z,28.40
2018-07-08T23:44:46.129Z,28.50
2018-07-08T23:47:19.467Z,28.70
2018-07-08T23:49:52.716Z,28.40
2018-07-08T23:52:25.938Z,28.00
2018-07-08T23:54:58.911Z,28.20
2018-07-08T23:57:32.105Z,28.70
